Huvudsida
METAR-TAF:

METAR-TAF

Flygplatser :

Leknes, Norge

Leknes flygplats

latitud: 68-09N, longitud: 013-37E, höjd: 2 m

Aktuellt väderrapport

Denna rapport gjordes för 32 minuter sedan, klockan 10:20 UTC
Vind 13 kt från syd/sydost i byarna ända upp till 23 kt
Temperatur 1°C
Fuktighet 51%
Tryck 993 hPa
Sikt 10 km eller mer
Få moln på en höjd av 4000 ft
Brutna moln på en höjd av 10000 ft

METAR: ENLK 171020Z 15013G23KT 9999 FEW040 BKN100 01/M08 Q0993

Tid: 11:52 (10:52 UTC)


TAF: saknas

Aktuella väderrapporter och prognoser från 4000 flygplatser (METAR- och TAF-rapporter).

De tillgängliga stationerna syns som gula och röda prickar på kartan.

För musen över prickarna för att se namnen på stationerna.

Klicka sedan för att få väderrapporter och prognoser.

För att ändra kartan: Klicka på de gröna knapparna med ett svart kors på för att zooma in; den gröna knappen med ett streck på för att zooma ut; eller på de gröna pilarna för angränsande kartor.


METAR-TAF: